createdAt,value
2023-05-01T00:00:55.192Z,5.76
2023-05-01T00:03:22.668Z,5.76
2023-05-01T00:05:50.201Z,5.76
2023-05-01T00:08:17.512Z,5.74
2023-05-01T00:10:44.771Z,5.70
2023-05-01T00:13:12.273Z,5.68
2023-05-01T00:15:41.076Z,5.65
2023-05-01T00:18:08.369Z,5.66
2023-05-01T00:20:35.731Z,5.65
2023-05-01T00:23:03.187Z,5.64
2023-05-01T00:25:31.491Z,5.64
2023-05-01T00:28:00.008Z,5.66
2023-05-01T00:30:30.278Z,5.66
2023-05-01T00:32:57.241Z,5.68
2023-05-01T00:35:24.279Z,5.69
2023-05-01T00:37:51.231Z,5.68
2023-05-01T00:40:18.650Z,5.69
2023-05-01T00:42:46.178Z,5.70
2023-05-01T00:45:14.654Z,5.72
2023-05-01T00:47:42.238Z,5.73
2023-05-01T00:50:09.760Z,5.73
2023-05-01T00:52:37.498Z,5.73
2023-05-01T00:55:05.528Z,5.73
2023-05-01T00:57:33.733Z,5.74
2023-05-01T01:00:00.645Z,5.75
2023-05-01T01:02:28.033Z,5.75
2023-05-01T01:04:55.609Z,5.74
2023-05-01T01:07:28.405Z,5.73
2023-05-01T01:10:14.256Z,5.72
2023-05-01T01:12:54.149Z,5.72
2023-05-01T01:15:35.865Z,5.68
2023-05-01T01:18:28.584Z,5.65
2023-05-01T01:21:10.358Z,5.64
2023-05-01T01:24:00.469Z,5.64
2023-05-01T01:26:52.564Z,5.65
2023-05-01T01:29:50.205Z,5.63
2023-05-01T01:32:27.020Z,5.63
2023-05-01T01:34:55.534Z,5.64
2023-05-01T01:37:25.390Z,5.61
2023-05-01T01:40:19.850Z,5.60
2023-05-01T01:42:52.361Z,5.59
2023-05-01T01:45:21.770Z,5.57
2023-05-01T01:47:49.266Z,5.56
2023-05-01T01:50:17.051Z,5.55
2023-05-01T01:52:45.818Z,5.55
2023-05-01T01:55:13.628Z,5.55
2023-05-01T01:57:44.061Z,5.55
2023-05-01T02:00:12.900Z,5.52
2023-05-01T02:02:45.229Z,5.52
2023-05-01T02:05:15.102Z,5.51
2023-05-01T02:07:42.849Z,5.52
2023-05-01T02:10:11.174Z,5.50
2023-05-01T02:12:38.680Z,5.49
2023-05-01T02:15:06.994Z,5.48
2023-05-01T02:17:35.856Z,5.47
2023-05-01T02:20:05.719Z,5.47
2023-05-01T02:22:33.955Z,5.46
2023-05-01T02:25:01.955Z,5.46
2023-05-01T02:27:32.158Z,5.45
2023-05-01T02:29:59.681Z,5.46
2023-05-01T02:32:28.747Z,5.46
2023-05-01T02:34:56.381Z,5.45
2023-05-01T02:37:24.034Z,5.48
2023-05-01T02:39:51.486Z,5.52
2023-05-01T02:42:19.054Z,5.53
2023-05-01T02:45:08.013Z,5.54
2023-05-01T02:47:37.600Z,5.53
2023-05-01T02:50:06.287Z,5.54
2023-05-01T02:52:33.880Z,5.54
2023-05-01T02:55:22.537Z,5.55
2023-05-01T02:57:51.879Z,5.57
2023-05-01T03:00:19.830Z,5.59
2023-05-01T03:02:47.601Z,5.61
2023-05-01T03:05:15.889Z,5.64
2023-05-01T03:07:43.324Z,5.69
2023-05-01T03:10:11.340Z,5.72
2023-05-01T03:12:39.261Z,5.73
2023-05-01T03:15:07.111Z,5.74
2023-05-01T03:17:34.734Z,5.73
2023-05-01T03:20:02.695Z,5.74
2023-05-01T03:22:33.259Z,5.73
2023-05-01T03:25:01.562Z,5.73
2023-05-01T03:27:29.155Z,5.74
2023-05-01T03:29:57.279Z,5.75
2023-05-01T03:32:25.816Z,5.76
2023-05-01T03:34:53.902Z,5.78
2023-05-01T03:37:21.689Z,5.79
2023-05-01T03:39:49.387Z,5.81
2023-05-01T03:42:55.086Z,5.81
2023-05-01T03:45:25.016Z,5.79
2023-05-01T03:47:53.217Z,5.79
2023-05-01T03:50:20.934Z,5.81
2023-05-01T03:52:49.401Z,5.83
2023-05-01T03:55:16.948Z,5.92
2023-05-01T03:57:47.864Z,5.99
2023-05-01T04:00:16.175Z,6.05
2023-05-01T04:02:44.214Z,6.09
2023-05-01T04:05:15.252Z,6.10
2023-05-01T04:07:47.113Z,6.06
2023-05-01T04:10:14.792Z,6.03
2023-05-01T04:12:47.602Z,6.01
2023-05-01T04:15:15.627Z,6.00
2023-05-01T04:17:46.452Z,5.98
2023-05-01T04:20:14.109Z,6.00
2023-05-01T04:22:41.871Z,6.02
2023-05-01T04:25:10.883Z,6.03
2023-05-01T04:27:38.701Z,6.08
2023-05-01T04:30:07.123Z,6.13
2023-05-01T04:32:35.751Z,6.17
2023-05-01T04:35:04.956Z,6.18
2023-05-01T04:37:32.403Z,6.19
2023-05-01T04:39:59.908Z,6.19
2023-05-01T04:42:33.628Z,6.22
2023-05-01T04:45:04.335Z,6.24
2023-05-01T04:47:34.997Z,6.22
2023-05-01T04:50:02.514Z,6.24
2023-05-01T04:52:30.905Z,6.29
2023-05-01T04:55:00.559Z,6.34
2023-05-01T04:57:30.040Z,6.41
2023-05-01T04:59:57.850Z,6.48
2023-05-01T05:02:25.697Z,6.54
2023-05-01T05:04:54.619Z,6.56
2023-05-01T05:07:23.279Z,6.58
2023-05-01T05:10:10.114Z,6.59
2023-05-01T05:12:37.666Z,6.61
2023-05-01T05:15:06.315Z,6.70
2023-05-01T05:17:33.820Z,6.78
2023-05-01T05:20:01.484Z,6.81
2023-05-01T05:22:29.034Z,6.85
2023-05-01T05:25:14.680Z,6.91
2023-05-01T05:27:41.606Z,6.92
2023-05-01T05:30:09.184Z,6.91
2023-05-01T05:32:36.542Z,6.91
2023-05-01T05:35:03.979Z,6.91
2023-05-01T05:37:31.162Z,6.94
2023-05-01T05:39:58.704Z,6.96
2023-05-01T05:42:27.465Z,7.01
2023-05-01T05:44:54.541Z,7.05
2023-05-01T05:47:22.165Z,7.11
2023-05-01T05:49:49.946Z,7.22
2023-05-01T05:52:17.859Z,7.30
2023-05-01T05:54:45.140Z,7.38
2023-05-01T05:57:12.516Z,7.41
2023-05-01T05:59:44.736Z,7.47
2023-05-01T06:02:13.062Z,7.55
2023-05-01T06:04:40.578Z,7.57
2023-05-01T06:07:08.315Z,7.58
2023-05-01T06:09:36.725Z,7.61
2023-05-01T06:12:06.950Z,7.58
2023-05-01T06:14:34.372Z,7.55
2023-05-01T06:17:01.767Z,7.50
2023-05-01T06:19:29.380Z,7.51
2023-05-01T06:22:05.159Z,7.55
2023-05-01T06:24:33.745Z,7.59
2023-05-01T06:27:02.364Z,7.67
2023-05-01T06:29:29.562Z,7.69
2023-05-01T06:31:57.047Z,7.70
2023-05-01T06:34:24.460Z,7.76
2023-05-01T06:36:53.702Z,7.81
2023-05-01T06:39:21.226Z,7.87
2023-05-01T06:41:48.736Z,7.94
2023-05-01T06:44:16.979Z,7.91
2023-05-01T06:46:44.202Z,7.90
2023-05-01T06:49:14.750Z,7.90
2023-05-01T06:51:41.620Z,7.86
2023-05-01T06:54:08.973Z,7.82
2023-05-01T06:56:36.245Z,7.82
2023-05-01T06:59:04.014Z,7.82
2023-05-01T07:01:33.885Z,7.79
2023-05-01T07:04:04.494Z,7.74
2023-05-01T07:06:32.877Z,7.73
2023-05-01T07:09:00.265Z,7.79
2023-05-01T07:11:27.660Z,7.84
2023-05-01T07:13:55.122Z,7.89
2023-05-01T07:16:22.582Z,7.99
2023-05-01T07:18:50.158Z,8.12
2023-05-01T07:21:17.496Z,8.21
2023-05-01T07:23:45.090Z,8.27
2023-05-01T07:26:12.384Z,8.30
2023-05-01T07:28:39.856Z,8.29
2023-05-01T07:31:07.569Z,8.22
2023-05-01T07:33:34.945Z,8.17
2023-05-01T07:36:03.517Z,8.11
2023-05-01T07:38:31.228Z,8.03
2023-05-01T07:40:58.825Z,7.96
2023-05-01T07:43:26.267Z,7.89
2023-05-01T07:45:56.541Z,7.80
2023-05-01T07:48:23.487Z,7.80
2023-05-01T07:50:50.400Z,7.86
2023-05-01T07:53:17.914Z,7.93
2023-05-01T07:55:45.206Z,7.97
2023-05-01T07:58:12.697Z,7.97
2023-05-01T08:00:40.098Z,7.97
2023-05-01T08:03:07.917Z,8.02
2023-05-01T08:05:35.384Z,8.02
2023-05-01T08:08:03.022Z,8.02
2023-05-01T08:10:30.464Z,8.01
2023-05-01T08:12:57.821Z,8.05
2023-05-01T08:15:25.409Z,8.17
2023-05-01T08:17:52.813Z,8.30
2023-05-01T08:20:20.288Z,8.42
2023-05-01T08:22:47.696Z,8.47
2023-05-01T08:25:15.227Z,8.46
2023-05-01T08:27:43.188Z,8.51
2023-05-01T08:30:11.201Z,8.50
2023-05-01T08:32:38.698Z,8.51
2023-05-01T08:35:06.588Z,8.56
2023-05-01T08:37:34.016Z,8.62
2023-05-01T08:40:03.857Z,8.63
2023-05-01T08:42:32.338Z,8.63
2023-05-01T08:45:00.060Z,8.67
2023-05-01T08:47:27.395Z,8.73
2023-05-01T08:49:55.041Z,8.74
2023-05-01T08:52:22.605Z,8.77
2023-05-01T08:54:50.000Z,8.92
2023-05-01T08:57:17.360Z,9.10
2023-05-01T08:59:44.795Z,9.33
2023-05-01T09:02:12.295Z,9.46
2023-05-01T09:04:40.913Z,9.54
2023-05-01T09:07:10.641Z,9.63
2023-05-01T09:09:37.809Z,9.69
2023-05-01T09:12:23.527Z,9.67
2023-05-01T09:14:54.861Z,9.66
2023-05-01T09:17:23.094Z,9.73
2023-05-01T09:19:53.446Z,9.85
2023-05-01T09:22:21.337Z,10.02
2023-05-01T09:24:48.987Z,10.19
2023-05-01T09:27:16.265Z,10.38
2023-05-01T09:29:47.604Z,10.52
2023-05-01T09:32:21.030Z,10.64
2023-05-01T09:34:49.465Z,10.72
2023-05-01T09:37:33.683Z,10.81
2023-05-01T09:40:07.818Z,10.94
2023-05-01T09:42:37.453Z,10.97
2023-05-01T09:45:07.172Z,10.94
2023-05-01T09:47:34.906Z,10.97
2023-05-01T09:50:02.263Z,11.03
2023-05-01T09:52:30.540Z,11.10
2023-05-01T09:55:18.978Z,11.05
2023-05-01T09:57:46.806Z,11.06
2023-05-01T10:00:20.974Z,11.14
2023-05-01T10:02:51.694Z,11.19
2023-05-01T10:05:19.295Z,11.25
2023-05-01T10:08:01.206Z,11.30
2023-05-01T10:10:29.185Z,11.34
2023-05-01T10:12:56.920Z,11.36
2023-05-01T10:15:26.790Z,11.42
2023-05-01T10:17:55.812Z,11.51
2023-05-01T10:20:23.345Z,11.57
2023-05-01T10:22:53.530Z,11.60
2023-05-01T10:25:21.200Z,11.66
2023-05-01T10:27:49.465Z,11.70
2023-05-01T10:30:16.808Z,11.71
2023-05-01T10:32:44.261Z,11.69
2023-05-01T10:35:13.722Z,11.70
2023-05-01T10:37:49.042Z,11.67
2023-05-01T10:40:48.550Z,11.63
2023-05-01T10:43:21.020Z,11.65
2023-05-01T10:45:52.275Z,11.65
2023-05-01T10:48:39.706Z,11.65
2023-05-01T10:51:11.379Z,11.66
2023-05-01T10:53:39.512Z,11.63
2023-05-01T10:56:27.424Z,11.58
2023-05-01T10:58:59.012Z,11.58
2023-05-01T11:01:37.007Z,11.67
2023-05-01T11:04:08.532Z,11.72
2023-05-01T11:06:36.928Z,11.69
2023-05-01T11:09:43.128Z,11.70
2023-05-01T11:12:11.826Z,11.81
2023-05-01T11:15:08.487Z,11.88
2023-05-01T11:17:40.041Z,12.00
2023-05-01T11:20:27.080Z,12.18
2023-05-01T11:22:56.063Z,12.42
2023-05-01T11:25:24.846Z,12.70
2023-05-01T11:27:58.558Z,12.92
2023-05-01T11:30:26.168Z,12.92
2023-05-01T11:32:53.824Z,12.92
2023-05-01T11:35:26.619Z,12.91
2023-05-01T11:37:56.124Z,12.97
2023-05-01T11:40:32.315Z,13.02
2023-05-01T11:43:07.395Z,13.11
2023-05-01T11:45:36.075Z,13.37
2023-05-01T11:48:04.931Z,13.57
2023-05-01T11:50:35.853Z,13.57
2023-05-01T11:53:17.840Z,13.46
2023-05-01T11:55:45.486Z,13.38
2023-05-01T11:58:13.077Z,13.57
2023-05-01T12:00:42.521Z,13.90
2023-05-01T12:03:14.550Z,14.18
2023-05-01T12:05:44.390Z,14.33
2023-05-01T12:08:23.755Z,14.52
2023-05-01T12:10:57.980Z,14.60
2023-05-01T12:13:26.261Z,14.61
2023-05-01T12:15:54.889Z,14.48
2023-05-01T12:18:22.365Z,14.29
2023-05-01T12:20:54.797Z,14.16
2023-05-01T12:23:37.568Z,13.99
2023-05-01T12:26:19.951Z,13.84
2023-05-01T12:29:00.373Z,13.88
2023-05-01T12:31:28.285Z,14.14
2023-05-01T12:33:57.054Z,14.41
2023-05-01T12:36:25.611Z,14.65
2023-05-01T12:39:12.608Z,14.73
2023-05-01T12:41:45.281Z,14.59
2023-05-01T12:44:26.064Z,14.35
2023-05-01T12:47:14.271Z,14.26
2023-05-01T12:49:41.528Z,14.20
2023-05-01T12:52:09.432Z,14.34
2023-05-01T12:54:39.348Z,14.46
2023-05-01T12:57:15.051Z,14.47
2023-05-01T12:59:44.029Z,14.36
2023-05-01T13:02:16.072Z,14.33
2023-05-01T13:04:43.921Z,14.38
2023-05-01T13:07:34.390Z,14.43
2023-05-01T13:10:10.235Z,14.33
2023-05-01T13:12:44.755Z,14.25
2023-05-01T13:15:22.141Z,14.17
2023-05-01T13:17:49.565Z,14.15
2023-05-01T13:20:25.736Z,14.19
2023-05-01T13:22:53.345Z,14.24
2023-05-01T13:25:20.921Z,14.23
2023-05-01T13:27:52.792Z,14.34
2023-05-01T13:30:22.211Z,14.48
2023-05-01T13:32:50.020Z,14.58
2023-05-01T13:35:25.186Z,14.59
2023-05-01T13:37:52.945Z,14.71
2023-05-01T13:40:20.573Z,15.08
2023-05-01T13:42:53.376Z,15.62
2023-05-01T13:45:23.689Z,16.29
2023-05-01T13:47:55.568Z,16.92
2023-05-01T13:50:23.272Z,17.28
2023-05-01T13:52:50.801Z,17.36
2023-05-01T13:55:19.010Z,17.38
2023-05-01T13:57:46.507Z,17.56
2023-05-01T14:00:17.887Z,17.75
2023-05-01T14:02:47.777Z,17.84
2023-05-01T14:05:15.920Z,18.20
2023-05-01T14:08:02.474Z,18.66
2023-05-01T14:10:30.123Z,18.84
2023-05-01T14:12:58.967Z,18.86
2023-05-01T14:15:27.055Z,18.73
2023-05-01T14:17:54.847Z,18.42
2023-05-01T14:20:27.403Z,18.24
2023-05-01T14:22:54.903Z,18.28
2023-05-01T14:25:30.001Z,18.35
2023-05-01T14:27:59.344Z,18.16
2023-05-01T14:30:30.491Z,17.89
2023-05-01T14:32:58.042Z,17.55
2023-05-01T14:35:25.605Z,17.22
2023-05-01T14:37:52.859Z,16.76
2023-05-01T14:40:26.622Z,16.27
2023-05-01T14:42:55.345Z,16.00
2023-05-01T14:45:22.798Z,15.81
2023-05-01T14:47:50.260Z,15.55
2023-05-01T14:50:24.400Z,15.25
2023-05-01T14:52:56.100Z,15.02
2023-05-01T14:55:28.493Z,14.83
2023-05-01T14:57:56.158Z,14.70
2023-05-01T15:00:24.386Z,14.54
2023-05-01T15:02:57.958Z,14.36
2023-05-01T15:05:29.158Z,14.18
2023-05-01T15:07:56.993Z,14.09
2023-05-01T15:10:24.441Z,14.05
2023-05-01T15:12:55.196Z,14.01
2023-05-01T15:15:22.763Z,13.94
2023-05-01T15:17:50.374Z,13.85
2023-05-01T15:20:18.186Z,13.79
2023-05-01T15:22:46.083Z,13.79
2023-05-01T15:25:13.573Z,13.82
2023-05-01T15:27:41.260Z,13.94
2023-05-01T15:30:10.515Z,14.38
2023-05-01T15:32:38.469Z,14.79
2023-05-01T15:35:06.044Z,15.14
2023-05-01T15:37:33.443Z,15.61
2023-05-01T15:40:01.308Z,16.15
2023-05-01T15:42:28.790Z,16.61
2023-05-01T15:44:56.315Z,16.85
2023-05-01T15:47:23.995Z,16.68
2023-05-01T15:49:51.415Z,16.24
2023-05-01T15:52:18.892Z,15.56
2023-05-01T15:54:47.445Z,14.76
2023-05-01T15:57:17.880Z,14.06
2023-05-01T15:59:45.373Z,13.52
2023-05-01T16:02:13.076Z,13.06
2023-05-01T16:04:40.586Z,12.74
2023-05-01T16:07:09.015Z,12.56
2023-05-01T16:09:36.598Z,12.43
2023-05-01T16:12:04.447Z,12.27
2023-05-01T16:14:31.906Z,12.15
2023-05-01T16:16:59.384Z,12.01
2023-05-01T16:19:30.771Z,11.92
2023-05-01T16:21:58.453Z,11.87
2023-05-01T16:24:26.395Z,11.90
2023-05-01T16:26:54.620Z,11.87
2023-05-01T16:29:22.205Z,11.82
2023-05-01T16:31:49.688Z,11.77
2023-05-01T16:34:20.244Z,11.70
2023-05-01T16:36:47.482Z,11.59
2023-05-01T16:39:16.578Z,11.48
2023-05-01T16:41:46.662Z,11.41
2023-05-01T16:44:14.549Z,11.34
2023-05-01T16:46:43.277Z,11.29
2023-05-01T16:49:11.673Z,11.26
2023-05-01T16:51:39.612Z,11.20
2023-05-01T16:54:06.778Z,11.11
2023-05-01T16:56:34.193Z,11.04
2023-05-01T16:59:01.763Z,10.95
2023-05-01T17:01:29.318Z,10.87
2023-05-01T17:03:57.001Z,10.75
2023-05-01T17:06:24.705Z,10.61
2023-05-01T17:08:52.180Z,10.48
2023-05-01T17:11:19.476Z,10.37
2023-05-01T17:13:46.841Z,10.26
2023-05-01T17:16:14.187Z,10.16
2023-05-01T17:18:41.553Z,10.09
2023-05-01T17:21:09.812Z,10.02
2023-05-01T17:23:37.425Z,9.95
2023-05-01T17:26:05.718Z,9.86
2023-05-01T17:28:33.025Z,9.75
2023-05-01T17:31:00.387Z,9.64
2023-05-01T17:33:29.824Z,9.54
2023-05-01T17:35:59.844Z,9.43
2023-05-01T17:38:27.394Z,9.34
2023-05-01T17:40:54.888Z,9.29
2023-05-01T17:43:22.236Z,9.20
2023-05-01T17:45:50.472Z,9.12
2023-05-01T17:48:19.765Z,9.04
2023-05-01T17:50:47.534Z,8.96
2023-05-01T17:53:14.782Z,8.89
2023-05-01T17:55:42.313Z,8.81
2023-05-01T17:58:09.818Z,8.73
2023-05-01T18:00:37.050Z,8.64
2023-05-01T18:03:05.149Z,8.60
2023-05-01T18:05:32.569Z,8.54
2023-05-01T18:07:59.969Z,8.49
2023-05-01T18:10:31.318Z,8.44
2023-05-01T18:12:58.888Z,8.40
2023-05-01T18:15:26.492Z,8.40
2023-05-01T18:17:54.339Z,8.38
2023-05-01T18:20:21.775Z,8.37
2023-05-01T18:22:49.114Z,8.35
2023-05-01T18:25:16.840Z,8.31
2023-05-01T18:27:45.216Z,8.26
2023-05-01T18:30:13.063Z,8.18
2023-05-01T18:32:48.031Z,8.09
2023-05-01T18:35:17.207Z,8.01
2023-05-01T18:37:44.782Z,7.95
2023-05-01T18:40:32.363Z,7.87
2023-05-01T18:42:59.733Z,7.81
2023-05-01T18:45:33.576Z,7.75
2023-05-01T18:48:01.190Z,7.70
2023-05-01T18:50:29.209Z,7.67
2023-05-01T18:52:56.578Z,7.64
2023-05-01T18:55:25.384Z,7.62
2023-05-01T18:57:53.150Z,7.59
2023-05-01T19:00:21.626Z,7.60
2023-05-01T19:02:52.289Z,7.62
2023-05-01T19:05:20.097Z,7.63
2023-05-01T19:07:49.781Z,7.60
2023-05-01T19:10:17.928Z,7.55
2023-05-01T19:12:45.971Z,7.50
2023-05-01T19:15:17.862Z,7.47
2023-05-01T19:17:45.368Z,7.44
2023-05-01T19:20:12.876Z,7.39
2023-05-01T19:22:40.306Z,7.36
2023-05-01T19:25:08.511Z,7.33
2023-05-01T19:27:36.262Z,7.30
2023-05-01T19:30:04.342Z,7.28
2023-05-01T19:32:31.864Z,7.27
2023-05-01T19:34:59.329Z,7.25
2023-05-01T19:37:27.346Z,7.23
2023-05-01T19:39:54.878Z,7.19
2023-05-01T19:42:22.315Z,7.13
2023-05-01T19:44:52.881Z,7.07
2023-05-01T19:47:20.628Z,7.01
2023-05-01T19:49:47.972Z,6.96
2023-05-01T19:52:15.244Z,6.92
2023-05-01T19:54:44.067Z,6.87
2023-05-01T19:57:11.854Z,6.83
2023-05-01T19:59:41.984Z,6.81
2023-05-01T20:02:09.530Z,6.78
2023-05-01T20:04:36.668Z,6.75
2023-05-01T20:07:04.765Z,6.73
2023-05-01T20:09:32.100Z,6.71
2023-05-01T20:11:58.980Z,6.69
2023-05-01T20:14:25.926Z,6.67
2023-05-01T20:16:53.973Z,6.64
2023-05-01T20:19:20.931Z,6.61
2023-05-01T20:21:48.143Z,6.56
2023-05-01T20:24:15.465Z,6.48
2023-05-01T20:26:43.083Z,6.42
2023-05-01T20:29:10.470Z,6.37
2023-05-01T20:31:37.979Z,6.35
2023-05-01T20:34:06.036Z,6.31
2023-05-01T20:36:34.004Z,6.27
2023-05-01T20:39:01.437Z,6.24
2023-05-01T20:41:29.343Z,6.23
2023-05-01T20:43:57.319Z,6.22
2023-05-01T20:46:24.947Z,6.21
2023-05-01T20:48:53.751Z,6.20
2023-05-01T20:51:21.025Z,6.19
2023-05-01T20:53:48.838Z,6.16
2023-05-01T20:56:16.150Z,6.13
2023-05-01T20:58:43.563Z,6.08
2023-05-01T21:01:11.903Z,6.03
2023-05-01T21:03:39.192Z,5.98
2023-05-01T21:06:06.773Z,5.94
2023-05-01T21:08:34.246Z,5.91
2023-05-01T21:11:02.237Z,5.88
2023-05-01T21:13:29.547Z,5.84
2023-05-01T21:15:56.776Z,5.81
2023-05-01T21:18:24.178Z,5.78
2023-05-01T21:20:51.747Z,5.74
2023-05-01T21:23:19.126Z,5.70
2023-05-01T21:25:46.572Z,5.67
2023-05-01T21:28:14.362Z,5.64
2023-05-01T21:30:41.736Z,5.62
2023-05-01T21:33:12.900Z,5.59
2023-05-01T21:35:41.794Z,5.56
2023-05-01T21:38:09.022Z,5.56
2023-05-01T21:40:37.202Z,5.57
2023-05-01T21:43:05.293Z,5.56
2023-05-01T21:45:34.490Z,5.54
2023-05-01T21:48:01.934Z,5.51
2023-05-01T21:50:29.408Z,5.47
2023-05-01T21:52:56.851Z,5.43
2023-05-01T21:55:25.843Z,5.40
2023-05-01T21:57:55.834Z,5.38
2023-05-01T22:00:22.737Z,5.34
2023-05-01T22:02:50.133Z,5.33
2023-05-01T22:05:18.415Z,5.32
2023-05-01T22:07:46.203Z,5.32
2023-05-01T22:10:15.532Z,5.33
2023-05-01T22:12:42.518Z,5.32
2023-05-01T22:15:10.562Z,5.32
2023-05-01T22:17:38.129Z,5.31
2023-05-01T22:20:07.195Z,5.30
2023-05-01T22:22:34.726Z,5.29
2023-05-01T22:25:02.546Z,5.29
2023-05-01T22:27:30.388Z,5.27
2023-05-01T22:29:57.914Z,5.23
2023-05-01T22:32:25.517Z,5.21
2023-05-01T22:34:53.085Z,5.25
2023-05-01T22:37:20.587Z,5.29
2023-05-01T22:39:47.936Z,5.32
2023-05-01T22:42:15.395Z,5.34
2023-05-01T22:44:42.722Z,5.37
2023-05-01T22:47:10.172Z,5.41
2023-05-01T22:49:37.643Z,5.44
2023-05-01T22:52:05.268Z,5.46
2023-05-01T22:54:32.790Z,5.46
2023-05-01T22:57:00.204Z,5.45
2023-05-01T22:59:27.521Z,5.46
2023-05-01T23:01:55.004Z,5.44
2023-05-01T23:04:22.453Z,5.41
2023-05-01T23:06:49.883Z,5.42
2023-05-01T23:09:17.858Z,5.42
2023-05-01T23:11:46.433Z,5.44
2023-05-01T23:14:17.385Z,5.47
2023-05-01T23:16:44.818Z,5.48
2023-05-01T23:19:22.853Z,5.46
2023-05-01T23:21:51.482Z,5.46
2023-05-01T23:24:19.976Z,5.47
2023-05-01T23:26:47.074Z,5.47
2023-05-01T23:29:13.982Z,5.47
2023-05-01T23:31:46.638Z,5.47
2023-05-01T23:34:19.429Z,5.51
2023-05-01T23:36:47.087Z,5.53
2023-05-01T23:39:14.294Z,5.53
2023-05-01T23:41:41.692Z,5.55
2023-05-01T23:44:09.701Z,5.55
2023-05-01T23:46:37.406Z,5.53
2023-05-01T23:49:04.696Z,5.49
2023-05-01T23:51:32.095Z,5.47
2023-05-01T23:54:00.164Z,5.44
2023-05-01T23:56:27.579Z,5.41
2023-05-01T23:58:54.952Z,5.40
